Time;durP1;ratioP1;P1;durP2;ratioP2;P2;SDS_P1;SDS_P2;PMS_P1;PMS_P2;Temp;Humidity;BMP_temperature;BMP_pressure;BME280_temperature;BME280_humidity;BME280_pressure;Samples;Min_cycle;Max_cycle;Signal;HPM_P1;HPM_P2
2022/03/28 00:00:32;;;;;;;10.90;7.93;;;8.10;99.90;;;;;;5012145;28;20731;-73
2022/03/28 00:03:18;;;;;;;13.80;9.80;;;8.20;99.90;;;;;;5017520;28;20433;-73
2022/03/28 00:06:03;;;;;;;10.73;7.90;;;8.20;99.90;;;;;;5015363;28;20436;-74
2022/03/28 00:08:49;;;;;;;19.23;9.40;;;8.10;99.90;;;;;;5015892;28;20552;-73
2022/03/28 00:11:35;;;;;;;11.23;8.93;;;7.90;99.90;;;;;;5010004;28;20536;-73
2022/03/28 00:14:22;;;;;;;15.33;9.23;;;7.80;99.90;;;;;;5017004;28;20417;-73
2022/03/28 00:17:08;;;;;;;11.00;7.90;;;7.80;99.90;;;;;;5013926;28;20932;-73
2022/03/28 00:19:54;;;;;;;14.80;10.23;;;7.80;99.90;;;;;;5010828;28;20483;-74
2022/03/28 00:22:41;;;;;;;14.57;9.77;;;7.70;99.90;;;;;;5013572;28;20420;-73
2022/03/28 00:25:27;;;;;;;13.00;9.80;;;7.70;99.90;;;;;;5011905;28;20539;-72
2022/03/28 00:28:12;;;;;;;12.10;8.90;;;7.70;99.90;;;;;;5012625;28;20442;-74
2022/03/28 00:31:00;;;;;;;14.27;9.60;;;7.80;99.90;;;;;;5011029;28;20441;-76
2022/03/28 00:33:46;;;;;;;14.93;9.63;;;7.90;99.90;;;;;;5012550;28;20503;-73
2022/03/28 00:36:32;;;;;;;11.67;8.33;;;8.00;99.90;;;;;;5013493;28;20419;-73
2022/03/28 00:39:19;;;;;;;11.90;8.90;;;7.80;99.90;;;;;;5010055;28;20530;-73
2022/03/28 00:42:06;;;;;;;10.90;8.20;;;7.70;99.90;;;;;;5012274;28;20432;-74
2022/03/28 00:44:51;;;;;;;12.73;9.50;;;7.50;99.90;;;;;;5015044;28;20517;-73
2022/03/28 00:47:38;;;;;;;11.00;9.00;;;7.70;99.90;;;;;;5014874;28;20888;-74
2022/03/28 00:50:24;;;;;;;11.40;9.10;;;7.60;99.90;;;;;;5011846;28;20474;-73
2022/03/28 00:53:13;;;;;;;11.10;8.50;;;7.50;99.90;;;;;;5012006;28;20546;-73
2022/03/28 00:55:59;;;;;;;13.80;9.00;;;7.50;99.90;;;;;;5015905;28;20818;-74
2022/03/28 00:58:45;;;;;;;14.00;9.87;;;7.50;99.90;;;;;;5012497;28;20456;-73
2022/03/28 01:01:31;;;;;;;13.53;9.60;;;7.50;99.90;;;;;;5010553;28;20417;-74
2022/03/28 01:04:18;;;;;;;11.93;8.70;;;7.50;99.90;;;;;;5012347;28;20450;-72
2022/03/28 01:07:04;;;;;;;12.40;8.77;;;7.50;99.90;;;;;;5013596;28;20433;-75
2022/03/28 01:09:50;;;;;;;14.30;9.70;;;7.60;99.90;;;;;;5012043;28;20474;-73
2022/03/28 01:12:36;;;;;;;12.27;8.10;;;7.40;99.90;;;;;;5018172;28;20428;-74
2022/03/28 01:15:22;;;;;;;13.30;8.70;;;7.40;99.90;;;;;;5016798;28;20430;-73
2022/03/28 01:18:09;;;;;;;12.80;8.53;;;7.30;99.90;;;;;;5017142;28;20578;-73
2022/03/28 01:20:57;;;;;;;11.73;8.30;;;7.10;99.90;;;;;;5007871;28;20976;-71
2022/03/28 01:23:42;;;;;;;8.93;8.00;;;7.00;99.90;;;;;;5014111;28;20448;-71
2022/03/28 01:26:29;;;;;;;10.87;8.80;;;7.00;99.90;;;;;;5015278;28;20964;-71
2022/03/28 01:29:14;;;;;;;13.67;9.27;;;7.10;99.90;;;;;;5008086;28;20445;-72
2022/03/28 01:32:00;;;;;;;11.97;9.40;;;7.10;99.90;;;;;;5012522;28;20781;-72
2022/03/28 01:34:46;;;;;;;10.93;9.23;;;7.00;99.90;;;;;;5015205;28;20450;-71
2022/03/28 01:37:33;;;;;;;12.57;8.37;;;7.00;99.90;;;;;;5013685;28;20811;-73
2022/03/28 01:40:19;;;;;;;16.70;10.57;;;7.00;99.90;;;;;;5007113;28;20984;-72
2022/03/28 01:43:04;;;;;;;12.10;9.03;;;7.00;99.90;;;;;;5011327;28;20442;-73
2022/03/28 01:45:50;;;;;;;16.67;9.40;;;6.90;99.90;;;;;;5011187;28;20970;-71
2022/03/28 01:48:36;;;;;;;10.60;7.80;;;6.90;99.90;;;;;;5011990;28;20471;-74
2022/03/28 01:51:22;;;;;;;12.07;8.57;;;6.70;99.90;;;;;;5010242;28;20415;-71
2022/03/28 01:54:09;;;;;;;12.20;9.70;;;6.60;99.90;;;;;;5011499;28;20445;-70
2022/03/28 01:56:55;;;;;;;14.17;9.83;;;6.50;99.90;;;;;;5013340;28;20528;-71
2022/03/28 01:59:40;;;;;;;11.10;8.80;;;6.60;99.90;;;;;;5007936;28;20449;-72
2022/03/28 02:02:27;;;;;;;11.80;8.67;;;6.60;99.90;;;;;;5011947;28;20514;-71
2022/03/28 02:05:12;;;;;;;12.00;9.60;;;6.60;99.90;;;;;;5011527;28;20448;-75
2022/03/28 02:07:59;;;;;;;10.77;8.47;;;6.70;99.90;;;;;;5011710;28;20451;-74
2022/03/28 02:10:47;;;;;;;12.67;10.27;;;6.70;99.90;;;;;;5014488;28;20447;-73
2022/03/28 02:13:33;;;;;;;12.33;8.73;;;6.80;99.90;;;;;;5014303;28;20448;-74
2022/03/28 02:16:18;;;;;;;11.10;8.23;;;6.80;99.90;;;;;;5012079;28;20448;-72
2022/03/28 02:19:04;;;;;;;11.70;8.73;;;6.60;99.90;;;;;;5010008;28;20553;-75
2022/03/28 02:21:50;;;;;;;12.97;9.17;;;6.60;99.90;;;;;;5010169;28;20445;-73
2022/03/28 02:24:35;;;;;;;14.00;10.47;;;6.50;99.90;;;;;;5013886;28;20892;-74
2022/03/28 02:27:22;;;;;;;13.80;9.97;;;6.50;99.90;;;;;;5016033;28;20802;-73
2022/03/28 02:30:10;;;;;;;14.10;9.20;;;6.30;99.90;;;;;;5013732;28;21019;-73
2022/03/28 02:32:56;;;;;;;11.93;9.23;;;6.20;99.90;;;;;;5012263;28;20963;-73
2022/03/28 02:35:43;;;;;;;10.80;8.90;;;6.10;99.90;;;;;;5011759;28;20446;-73
2022/03/28 02:38:28;;;;;;;11.93;8.70;;;6.10;99.90;;;;;;5007916;28;20476;-74
2022/03/28 02:41:14;;;;;;;11.20;8.30;;;6.30;99.90;;;;;;5013735;28;20453;-72
2022/03/28 02:44:01;;;;;;;11.83;9.00;;;6.40;99.90;;;;;;5007369;28;20436;-71
2022/03/28 02:46:48;;;;;;;20.40;8.83;;;6.60;99.90;;;;;;5011551;28;20919;-71
2022/03/28 02:49:33;;;;;;;11.13;8.43;;;6.50;99.90;;;;;;5009283;28;20972;-71
2022/03/28 02:52:19;;;;;;;11.97;9.43;;;6.50;99.90;;;;;;5013476;28;20444;-72
2022/03/28 02:55:05;;;;;;;12.90;9.43;;;6.60;99.90;;;;;;5013093;28;20491;-72
2022/03/28 02:57:52;;;;;;;10.43;7.93;;;6.30;99.90;;;;;;5007890;28;20589;-73
2022/03/28 03:00:39;;;;;;;11.37;8.23;;;6.30;99.90;;;;;;5007298;28;20447;-72
2022/03/28 03:03:24;;;;;;;12.77;9.60;;;6.30;99.90;;;;;;5008304;28;20432;-73
2022/03/28 03:06:10;;;;;;;12.70;8.33;;;6.30;99.90;;;;;;5010477;28;20415;-71
2022/03/28 03:08:56;;;;;;;11.90;9.00;;;6.30;99.90;;;;;;5012304;28;20553;-72
2022/03/28 03:11:41;;;;;;;15.13;9.10;;;6.10;99.90;;;;;;5011337;28;20450;-72
2022/03/28 03:14:27;;;;;;;16.20;9.43;;;6.00;99.90;;;;;;5014422;28;20428;-72
2022/03/28 03:17:14;;;;;;;11.23;8.73;;;6.10;99.90;;;;;;5014242;28;20799;-71
2022/03/28 03:19:59;;;;;;;10.80;8.20;;;5.90;99.90;;;;;;5009595;28;20620;-72
2022/03/28 03:22:45;;;;;;;11.10;7.83;;;5.90;99.90;;;;;;5010391;28;20416;-75
2022/03/28 03:25:31;;;;;;;12.90;9.43;;;5.90;99.90;;;;;;5008861;28;20440;-72
2022/03/28 03:28:17;;;;;;;11.27;8.57;;;5.90;99.90;;;;;;5017355;28;20520;-72
2022/03/28 03:31:02;;;;;;;27.07;8.50;;;5.70;99.90;;;;;;5016795;28;20424;-71
2022/03/28 03:33:49;;;;;;;11.57;7.70;;;5.70;99.90;;;;;;5005391;28;21058;-72
2022/03/28 03:36:35;;;;;;;13.53;8.60;;;5.70;99.90;;;;;;5006342;28;20598;-72
2022/03/28 03:39:22;;;;;;;16.47;8.80;;;5.70;99.90;;;;;;5014455;28;20435;-72
2022/03/28 03:42:11;;;;;;;18.27;9.07;;;5.70;99.90;;;;;;5015236;28;20786;-71
2022/03/28 03:44:57;;;;;;;10.17;8.03;;;5.70;99.90;;;;;;5011062;28;20440;-72
2022/03/28 03:47:42;;;;;;;11.00;8.17;;;5.80;99.90;;;;;;5009687;28;20421;-72
2022/03/28 03:50:29;;;;;;;11.03;8.33;;;5.70;99.90;;;;;;5009682;28;21009;-73
2022/03/28 03:53:15;;;;;;;16.13;8.80;;;5.70;99.90;;;;;;5013512;28;20423;-72
2022/03/28 03:56:00;;;;;;;13.47;9.00;;;5.60;99.90;;;;;;5013213;28;20431;-72
2022/03/28 03:58:46;;;;;;;11.50;8.93;;;5.70;99.90;;;;;;5007547;28;20985;-72
2022/03/28 04:01:32;;;;;;;11.80;9.20;;;5.80;99.90;;;;;;5011576;28;21672;-70
2022/03/28 04:04:17;;;;;;;14.10;9.27;;;5.80;99.90;;;;;;5010726;28;20798;-72
2022/03/28 04:07:05;;;;;;;10.37;7.80;;;5.90;99.90;;;;;;5012835;28;20428;-72
2022/03/28 04:09:51;;;;;;;12.17;9.23;;;6.00;99.90;;;;;;5005854;28;20444;-72
2022/03/28 04:12:37;;;;;;;10.13;7.63;;;5.90;99.90;;;;;;5017698;28;20441;-71
2022/03/28 04:15:23;;;;;;;11.23;8.53;;;5.90;99.90;;;;;;5022862;28;20403;-73
2022/03/28 04:18:08;;;;;;;12.20;8.20;;;5.60;99.90;;;;;;5013061;28;20442;-72
2022/03/28 04:20:55;;;;;;;17.40;8.27;;;5.40;99.90;;;;;;5015239;28;20557;-72
2022/03/28 04:23:41;;;;;;;11.03;8.10;;;5.30;99.90;;;;;;5012848;28;20416;-73
2022/03/28 04:26:27;;;;;;;8.60;7.40;;;5.30;99.90;;;;;;5013548;28;20994;-72
2022/03/28 04:29:14;;;;;;;12.53;7.80;;;5.30;99.90;;;;;;5012428;28;20480;-72
2022/03/28 04:31:59;;;;;;;12.33;7.27;;;5.30;99.90;;;;;;5013545;28;20573;-73
2022/03/28 04:34:45;;;;;;;16.53;8.70;;;5.30;99.90;;;;;;5014924;28;20423;-72
2022/03/28 04:37:33;;;;;;;10.90;8.13;;;5.20;99.90;;;;;;5008832;28;20502;-72
2022/03/28 04:40:20;;;;;;;18.30;7.90;;;5.10;99.90;;;;;;5016280;28;20438;-71
2022/03/28 04:43:06;;;;;;;15.53;8.20;;;5.10;99.90;;;;;;5014484;28;20453;-72
2022/03/28 04:45:52;;;;;;;13.10;8.10;;;5.10;99.90;;;;;;5013537;28;20613;-72
2022/03/28 04:48:38;;;;;;;11.33;7.87;;;5.10;99.90;;;;;;5008248;28;20778;-72
2022/03/28 04:51:23;;;;;;;11.33;8.70;;;5.20;99.90;;;;;;5016549;28;20418;-71
2022/03/28 04:54:09;;;;;;;15.03;8.80;;;5.30;99.90;;;;;;5015716;28;20987;-72
2022/03/28 04:56:56;;;;;;;11.67;8.40;;;5.40;99.90;;;;;;5011615;28;20449;-72
2022/03/28 04:59:42;;;;;;;10.70;8.20;;;5.30;99.90;;;;;;5014352;28;20513;-72
2022/03/28 05:02:28;;;;;;;17.80;8.53;;;5.20;99.90;;;;;;5015496;28;20449;-71
2022/03/28 05:05:13;;;;;;;11.53;8.13;;;5.20;99.90;;;;;;5015088;28;20448;-71
2022/03/28 05:07:59;;;;;;;11.47;8.67;;;5.10;99.90;;;;;;5014618;28;20455;-72
2022/03/28 05:10:44;;;;;;;13.17;8.50;;;5.00;99.90;;;;;;5017666;28;20428;-73
2022/03/28 05:13:31;;;;;;;13.20;9.17;;;5.00;99.90;;;;;;5022541;28;20964;-72
2022/03/28 05:16:17;;;;;;;15.57;9.27;;;5.10;99.90;;;;;;5023104;28;20425;-72
2022/03/28 05:19:03;;;;;;;18.30;7.93;;;5.30;99.90;;;;;;5014135;28;20474;-72
2022/03/28 05:21:49;;;;;;;12.17;7.50;;;5.40;99.90;;;;;;5016386;28;20556;-73
2022/03/28 05:24:35;;;;;;;26.07;9.30;;;5.50;99.90;;;;;;5012327;28;20396;-72
2022/03/28 05:27:21;;;;;;;15.23;8.43;;;5.40;99.90;;;;;;5012443;28;20603;-72
2022/03/28 05:30:09;;;;;;;16.80;9.03;;;5.50;99.90;;;;;;5018231;28;20494;-72
2022/03/28 05:32:55;;;;;;;13.20;8.50;;;5.30;99.90;;;;;;5019626;28;20779;-72
2022/03/28 05:35:43;;;;;;;15.73;8.43;;;5.20;99.90;;;;;;5013725;28;20399;-72
2022/03/28 05:38:29;;;;;;;11.97;8.53;;;5.00;99.90;;;;;;5013384;28;20975;-73
2022/03/28 05:41:16;;;;;;;20.67;8.40;;;5.10;99.90;;;;;;5014605;28;20528;-73
2022/03/28 05:44:01;;;;;;;12.83;8.67;;;5.30;99.90;;;;;;5013194;28;21189;-73
2022/03/28 05:46:49;;;;;;;17.00;9.10;;;5.30;99.90;;;;;;5007028;28;20960;-73
2022/03/28 05:49:34;;;;;;;12.67;8.80;;;5.50;99.90;;;;;;5008528;28;20508;-73
2022/03/28 05:52:20;;;;;;;12.87;9.23;;;5.50;99.90;;;;;;5025648;28;20471;-73
2022/03/28 05:55:07;;;;;;;12.70;8.70;;;5.30;99.90;;;;;;5016214;28;20444;-73
2022/03/28 05:57:52;;;;;;;13.87;8.87;;;5.50;99.90;;;;;;5011438;28;20453;-73
2022/03/28 06:00:39;;;;;;;10.90;7.60;;;5.60;99.90;;;;;;5015855;28;20468;-73
2022/03/28 06:03:26;;;;;;;12.20;8.57;;;5.80;99.90;;;;;;5006859;28;20500;-73
2022/03/28 06:06:13;;;;;;;11.90;7.80;;;6.10;99.90;;;;;;5016253;28;20444;-73
2022/03/28 06:08:59;;;;;;;10.93;8.87;;;6.40;99.90;;;;;;5016870;28;20415;-73
2022/03/28 06:11:44;;;;;;;11.10;8.03;;;6.60;99.90;;;;;;5010378;28;20499;-73
2022/03/28 06:14:29;;;;;;;13.53;8.93;;;6.70;99.90;;;;;;5019239;28;20962;-71
2022/03/28 06:17:21;;;;;;;17.70;7.10;;;6.80;99.90;;;;;;5011036;28;20485;-73
2022/03/28 06:20:10;;;;;;;16.70;8.73;;;6.80;99.90;;;;;;5007617;28;20479;-73
2022/03/28 06:22:55;;;;;;;12.50;8.30;;;6.90;99.90;;;;;;5008578;28;20443;-73
2022/03/28 06:25:41;;;;;;;15.83;8.43;;;7.00;99.90;;;;;;5009555;28;20994;-74
2022/03/28 06:28:28;;;;;;;11.73;8.67;;;7.10;99.90;;;;;;5015642;28;20449;-74
2022/03/28 06:31:13;;;;;;;13.43;9.50;;;7.20;99.90;;;;;;5013853;28;21070;-73
2022/03/28 06:34:02;;;;;;;13.07;8.63;;;7.20;99.90;;;;;;5020118;28;20438;-73
2022/03/28 06:36:49;;;;;;;16.50;10.20;;;7.40;99.90;;;;;;5001351;28;20597;-73
2022/03/28 06:39:35;;;;;;;16.40;9.97;;;7.60;99.90;;;;;;5010488;28;20572;-73
2022/03/28 06:42:20;;;;;;;15.20;9.57;;;7.70;99.90;;;;;;5020539;28;20426;-73
2022/03/28 06:45:09;;;;;;;14.57;10.67;;;7.80;99.90;;;;;;5011498;28;20418;-73
2022/03/28 06:47:55;;;;;;;16.33;11.03;;;7.80;99.90;;;;;;5010785;28;20964;-73
2022/03/28 06:50:41;;;;;;;18.77;11.43;;;7.90;99.90;;;;;;5016798;28;20529;-73
2022/03/28 06:53:28;;;;;;;24.97;11.40;;;8.00;99.90;;;;;;5005298;28;20452;-73
2022/03/28 06:56:13;;;;;;;18.03;11.73;;;8.10;99.90;;;;;;5013797;28;20453;-73
2022/03/28 06:58:59;;;;;;;15.30;10.53;;;8.10;99.90;;;;;;5009661;28;20455;-73
2022/03/28 07:01:45;;;;;;;13.80;9.60;;;8.20;99.90;;;;;;5011043;28;20446;-73
2022/03/28 07:04:30;;;;;;;19.27;11.13;;;8.30;99.90;;;;;;5014331;28;20855;-74
2022/03/28 07:07:16;;;;;;;36.90;12.87;;;8.40;99.90;;;;;;5013034;28;20603;-74
2022/03/28 07:10:03;;;;;;;15.03;10.07;;;8.60;99.90;;;;;;5016532;28;20816;-72
2022/03/28 07:12:51;;;;;;;16.63;11.03;;;8.70;99.90;;;;;;5013813;28;20428;-73
2022/03/28 07:15:37;;;;;;;20.17;11.00;;;8.80;99.90;;;;;;5010492;28;20445;-74
2022/03/28 07:18:22;;;;;;;15.73;10.90;;;9.10;99.90;;;;;;5016924;28;20955;-73
2022/03/28 07:21:09;;;;;;;16.80;10.77;;;9.30;99.90;;;;;;5011290;28;20467;-73
2022/03/28 07:23:55;;;;;;;15.13;10.63;;;9.50;99.90;;;;;;5010300;28;20904;-74
2022/03/28 07:26:44;;;;;;;17.23;10.47;;;9.50;99.90;;;;;;5010933;28;20522;-74
2022/03/28 07:29:29;;;;;;;15.20;11.53;;;9.60;99.90;;;;;;5008359;28;20471;-74
2022/03/28 07:32:15;;;;;;;13.80;9.33;;;9.80;99.90;;;;;;5021282;28;20432;-75
2022/03/28 07:35:01;;;;;;;16.10;11.80;;;9.90;99.90;;;;;;5015019;28;20458;-75
2022/03/28 07:37:47;;;;;;;15.33;10.83;;;10.10;99.90;;;;;;5011602;28;20582;-74
2022/03/28 07:40:32;;;;;;;14.93;11.17;;;10.30;99.90;;;;;;5017244;28;20447;-74
2022/03/28 07:43:19;;;;;;;21.70;11.03;;;10.50;99.90;;;;;;5013508;28;20428;-74
2022/03/28 07:46:05;;;;;;;21.77;10.67;;;10.70;99.90;;;;;;5004106;28;20807;-74
2022/03/28 07:48:50;;;;;;;12.50;10.13;;;10.80;99.90;;;;;;5013102;28;20413;-74
2022/03/28 07:51:36;;;;;;;18.83;10.90;;;11.00;99.90;;;;;;5026853;28;20835;-74
2022/03/28 07:54:22;;;;;;;14.80;10.27;;;11.10;99.90;;;;;;5019879;28;20579;-75
2022/03/28 07:57:08;;;;;;;17.70;11.87;;;11.20;99.90;;;;;;5007184;28;21013;-74
2022/03/28 07:59:55;;;;;;;17.33;11.57;;;11.40;99.90;;;;;;5015567;28;20468;-74
2022/03/28 08:02:41;;;;;;;15.20;10.73;;;11.60;99.90;;;;;;5016196;28;20427;-74
2022/03/28 08:05:28;;;;;;;15.40;11.60;;;11.70;99.90;;;;;;5016968;28;20422;-74
2022/03/28 08:08:14;;;;;;;16.90;11.83;;;11.90;99.90;;;;;;5018879;28;20571;-74
2022/03/28 08:10:59;;;;;;;16.90;14.53;;;12.00;99.90;;;;;;5018647;28;20441;-74
2022/03/28 08:13:45;;;;;;;16.90;12.17;;;12.20;99.90;;;;;;5012145;28;20445;-74
2022/03/28 08:16:32;;;;;;;18.47;12.20;;;12.40;99.90;;;;;;5011809;28;20460;-74
2022/03/28 08:19:18;;;;;;;17.93;11.00;;;12.60;99.90;;;;;;5020375;28;22228;-74
2022/03/28 08:22:04;;;;;;;23.90;11.67;;;12.70;99.90;;;;;;5020616;28;20953;-75
2022/03/28 08:24:50;;;;;;;15.80;11.23;;;12.90;99.90;;;;;;5011146;28;20453;-74
2022/03/28 08:27:35;;;;;;;15.00;11.10;;;13.00;99.90;;;;;;5018039;28;20627;-75
2022/03/28 08:30:21;;;;;;;21.33;13.13;;;13.10;99.90;;;;;;5018037;28;20441;-75
2022/03/28 08:33:09;;;;;;;21.00;13.27;;;13.30;99.90;;;;;;5021606;28;20422;-74
2022/03/28 08:35:55;;;;;;;18.30;13.67;;;13.50;99.90;;;;;;5009513;28;20795;-74
2022/03/28 08:38:41;;;;;;;19.77;14.10;;;13.60;99.90;;;;;;5011714;28;20472;-74
2022/03/28 08:41:28;;;;;;;20.90;14.50;;;13.70;99.90;;;;;;5018738;28;20428;-74
2022/03/28 08:44:14;;;;;;;20.27;15.80;;;13.90;99.90;;;;;;5009788;28;20527;-75
2022/03/28 08:47:00;;;;;;;23.07;15.10;;;14.00;99.90;;;;;;5019164;28;20823;-75
2022/03/28 08:49:49;;;;;;;26.53;17.33;;;14.10;99.90;;;;;;5013328;28;20500;-74
2022/03/28 08:52:35;;;;;;;25.57;16.80;;;14.30;99.90;;;;;;5012996;28;20460;-74
2022/03/28 08:55:22;;;;;;;22.23;15.63;;;14.30;99.90;;;;;;5012981;28;20471;-74
2022/03/28 08:58:08;;;;;;;25.60;17.67;;;14.40;99.90;;;;;;5012632;28;20438;-76
2022/03/28 09:00:54;;;;;;;22.00;16.60;;;14.50;99.90;;;;;;5019472;28;20452;-77
2022/03/28 09:03:44;;;;;;;27.90;17.70;;;14.60;99.90;;;;;;5014383;28;20445;-75
2022/03/28 09:06:33;;;;;;;23.33;17.80;;;14.70;99.90;;;;;;5009435;28;20833;-76
2022/03/28 09:09:21;;;;;;;23.63;16.80;;;14.70;99.90;;;;;;5011490;28;21282;-74
2022/03/28 09:12:08;;;;;;;28.03;18.27;;;14.80;99.90;;;;;;5015684;28;20424;-74
2022/03/28 09:15:01;;;;;;;23.13;16.10;;;14.80;99.90;;;;;;5009749;28;20444;-75
2022/03/28 09:17:54;;;;;;;22.77;16.23;;;14.90;99.90;;;;;;5013797;28;20444;-74
2022/03/28 09:20:40;;;;;;;24.27;15.53;;;15.00;99.90;;;;;;5012299;28;20496;-74
2022/03/28 09:25:55;;;;;;;19.43;14.10;;;15.20;99.90;;;;;;5060725;28;20947;-71
2022/03/28 09:28:47;;;;;;;24.00;15.03;;;15.30;99.90;;;;;;5065321;28;20450;-71
2022/03/28 09:31:35;;;;;;;21.53;14.00;;;15.30;98.80;;;;;;5057984;28;20423;-71
2022/03/28 09:34:20;;;;;;;20.53;14.50;;;15.50;96.70;;;;;;5070914;28;20814;-71
2022/03/28 09:37:06;;;;;;;17.23;13.50;;;15.60;97.30;;;;;;5088814;28;20787;-72
2022/03/28 09:39:52;;;;;;;20.47;12.97;;;15.80;95.00;;;;;;5077990;28;20805;-72
2022/03/28 09:42:49;;;;;;;19.30;14.20;;;15.90;93.00;;;;;;5081480;28;20455;-71
2022/03/28 09:45:38;;;;;;;19.03;13.50;;;16.10;92.50;;;;;;5082716;28;20466;-72
2022/03/28 09:48:26;;;;;;;20.60;13.47;;;16.20;93.10;;;;;;5080229;28;20531;-71
2022/03/28 09:51:14;;;;;;;22.63;14.67;;;16.30;91.00;;;;;;5084882;28;20546;-71
2022/03/28 09:54:00;;;;;;;21.10;13.90;;;16.30;91.60;;;;;;5082337;28;20844;-71
2022/03/28 09:57:10;;;;;;;26.40;16.47;;;16.40;90.20;;;;;;5088663;28;20522;-71
2022/03/28 10:00:10;;;;;;;25.47;15.40;;;16.50;91.00;;;;;;5092214;28;20427;-70
2022/03/28 10:03:00;;;;;;;19.93;16.40;;;16.60;92.00;;;;;;5081601;28;20446;-71
2022/03/28 10:05:46;;;;;;;19.90;15.67;;;16.70;91.20;;;;;;5078451;28;20454;-72
2022/03/28 10:08:32;;;;;;;21.40;15.63;;;16.90;90.00;;;;;;5084898;28;20538;-71
2022/03/28 10:11:18;;;;;;;21.40;15.97;;;16.90;88.50;;;;;;5093033;28;20448;-71
2022/03/28 10:14:05;;;;;;;19.57;14.80;;;16.80;85.80;;;;;;5086696;28;20486;-71
2022/03/28 10:16:54;;;;;;;20.33;14.57;;;16.80;86.00;;;;;;5084921;28;20443;-71
2022/03/28 10:19:39;;;;;;;21.60;15.03;;;16.90;83.90;;;;;;5091003;28;20422;-71
2022/03/28 10:22:29;;;;;;;20.97;14.47;;;16.90;82.80;;;;;;5086797;28;20838;-71
2022/03/28 10:25:21;;;;;;;22.00;13.60;;;16.80;79.40;;;;;;5086291;28;20536;-70
2022/03/28 10:28:06;;;;;;;17.90;13.57;;;16.90;77.50;;;;;;5091579;28;20845;-71
2022/03/28 10:31:14;;;;;;;22.33;15.00;;;17.00;76.90;;;;;;5077849;28;20967;-71
2022/03/28 10:34:03;;;;;;;20.83;15.60;;;17.20;77.00;;;;;;5073765;28;20482;-71
2022/03/28 10:36:49;;;;;;;25.30;14.73;;;17.20;76.80;;;;;;5086166;28;20530;-70
2022/03/28 10:39:36;;;;;;;20.90;13.60;;;17.30;77.70;;;;;;5083784;28;20439;-71
2022/03/28 10:42:25;;;;;;;31.90;15.30;;;17.50;77.50;;;;;;5091226;28;20444;-70
2022/03/28 10:45:16;;;;;;;19.30;14.83;;;17.80;77.00;;;;;;5082451;28;20822;-70
2022/03/28 10:48:02;;;;;;;17.27;14.07;;;17.90;75.90;;;;;;5080556;28;20529;-71
2022/03/28 10:50:51;;;;;;;20.50;15.03;;;18.10;71.80;;;;;;5076902;28;20458;-71
2022/03/28 10:53:40;;;;;;;17.20;13.13;;;18.30;69.10;;;;;;5078010;28;20576;-73
2022/03/28 10:56:28;;;;;;;20.80;14.97;;;18.40;68.10;;;;;;5085782;28;20996;-70
2022/03/28 10:59:18;;;;;;;23.70;15.87;;;18.60;69.30;;;;;;5092078;28;20434;-71
2022/03/28 11:02:04;;;;;;;21.97;15.30;;;18.60;65.00;;;;;;5085985;28;20824;-70
2022/03/28 11:04:49;;;;;;;21.67;12.93;;;18.60;61.30;;;;;;5078528;28;20473;-71
2022/03/28 11:07:36;;;;;;;19.53;12.80;;;18.70;56.50;;;;;;5075976;28;20470;-71
2022/03/28 11:10:23;;;;;;;21.17;13.40;;;18.70;54.90;;;;;;5085347;28;20420;-71
2022/03/28 11:13:17;;;;;;;18.43;12.53;;;18.90;56.70;;;;;;5080471;28;21034;-70
2022/03/28 11:16:03;;;;;;;21.83;13.43;;;19.10;53.40;;;;;;5083495;28;20504;-70
2022/03/28 11:19:25;;;;;;;27.90;16.20;;;19.10;44.50;;;;;;5088817;28;20453;-70
2022/03/28 11:22:10;;;;;;;20.03;13.30;;;19.10;46.00;;;;;;5081931;28;20462;-70
2022/03/28 11:24:58;;;;;;;19.07;13.90;;;19.20;47.60;;;;;;5082277;28;20943;-71
2022/03/28 11:27:44;;;;;;;23.33;13.63;;;19.30;46.40;;;;;;5086241;28;20478;-71
2022/03/28 11:30:29;;;;;;;20.50;14.70;;;19.40;46.60;;;;;;5085934;28;20495;-72
2022/03/28 11:33:17;;;;;;;22.53;14.97;;;19.60;45.10;;;;;;5086795;28;20529;-71
2022/03/28 11:36:06;;;;;;;21.33;14.03;;;19.80;41.70;;;;;;5082461;28;20461;-71
2022/03/28 11:38:55;;;;;;;28.20;13.73;;;20.00;37.50;;;;;;5083090;28;20465;-71
2022/03/28 11:41:42;;;;;;;20.30;13.60;;;20.10;39.70;;;;;;5083108;28;20455;-71
2022/03/28 11:44:34;;;;;;;20.20;13.27;;;20.10;41.90;;;;;;5082302;28;20465;-73
2022/03/28 11:47:21;;;;;;;17.63;11.90;;;20.30;41.90;;;;;;5091908;28;20472;-72
2022/03/28 11:50:09;;;;;;;20.90;13.73;;;20.40;40.40;;;;;;5086513;28;20436;-73
2022/03/28 11:52:54;;;;;;;19.50;12.20;;;20.30;41.40;;;;;;5090041;28;20441;-73
2022/03/28 11:55:48;;;;;;;23.00;12.67;;;20.50;40.10;;;;;;5089077;28;20442;-72
2022/03/28 11:58:35;;;;;;;21.63;12.17;;;20.50;38.90;;;;;;5082133;28;20815;-72
2022/03/28 12:01:21;;;;;;;19.93;12.50;;;20.60;40.20;;;;;;5085523;28;20955;-71
2022/03/28 12:04:07;;;;;;;28.30;14.87;;;20.70;41.60;;;;;;5079213;28;20482;-71
2022/03/28 12:06:52;;;;;;;24.23;14.37;;;20.80;40.40;;;;;;5081487;28;20473;-71
2022/03/28 12:09:42;;;;;;;19.80;12.70;;;20.70;40.30;;;;;;5091193;28;20775;-70
2022/03/28 12:12:28;;;;;;;17.70;11.97;;;20.80;40.40;;;;;;5083975;28;20470;-71
2022/03/28 12:15:24;;;;;;;19.57;11.70;;;20.60;33.70;;;;;;5082636;28;20434;-71
2022/03/28 12:18:12;;;;;;;38.07;11.67;;;20.60;35.30;;;;;;5093072;28;20441;-71
2022/03/28 12:20:58;;;;;;;17.60;12.37;;;20.40;38.30;;;;;;5084367;28;20442;-71
2022/03/28 12:23:44;;;;;;;13.20;9.37;;;20.50;37.60;;;;;;5080022;28;20587;-71
2022/03/28 12:26:30;;;;;;;20.40;8.50;;;20.60;29.10;;;;;;5089697;28;20981;-71
2022/03/28 12:29:17;;;;;;;21.77;8.93;;;20.70;27.00;;;;;;5087634;28;20527;-71
2022/03/28 12:32:06;;;;;;;14.20;8.87;;;20.70;27.00;;;;;;5084978;28;20438;-68
2022/03/28 12:34:51;;;;;;;15.33;8.73;;;21.00;27.30;;;;;;5077864;28;20500;-71
2022/03/28 12:37:37;;;;;;;17.00;9.20;;;21.20;27.40;;;;;;5084760;28;21250;-72
2022/03/28 12:40:27;;;;;;;17.33;11.13;;;21.50;27.60;;;;;;5089452;28;20973;-69
2022/03/28 12:43:14;;;;;;;17.73;10.97;;;21.50;26.70;;;;;;5082975;28;20577;-71
2022/03/28 12:46:02;;;;;;;19.30;12.20;;;21.80;29.00;;;;;;5084348;28;20430;-71
2022/03/28 12:48:51;;;;;;;21.47;11.33;;;22.10;28.10;;;;;;5084933;28;20830;-71
2022/03/28 12:51:38;;;;;;;14.27;9.53;;;21.90;28.00;;;;;;5085093;28;20919;-71
2022/03/28 12:54:24;;;;;;;16.90;10.10;;;21.80;26.70;;;;;;5086909;28;20457;-68
2022/03/28 12:57:10;;;;;;;17.30;11.07;;;21.90;28.00;;;;;;5083501;28;21050;-70
2022/03/28 12:59:56;;;;;;;22.97;12.30;;;21.90;28.00;;;;;;5092200;28;20913;-70
2022/03/28 13:02:49;;;;;;;15.97;11.80;;;21.80;27.90;;;;;;5080577;28;20441;-71
2022/03/28 13:05:37;;;;;;;22.73;12.27;;;21.90;28.00;;;;;;5078576;28;20556;-72
2022/03/28 13:08:34;;;;;;;22.73;14.67;;;21.80;28.40;;;;;;5084741;28;21034;-71
2022/03/28 13:11:21;;;;;;;15.90;11.50;;;21.70;27.90;;;;;;5086998;28;20563;-71
2022/03/28 13:14:07;;;;;;;20.73;12.37;;;21.60;30.20;;;;;;5077914;28;21018;-71
2022/03/28 13:17:07;;;;;;;20.50;11.67;;;21.90;28.80;;;;;;5082551;28;20438;-71
2022/03/28 13:19:58;;;;;;;21.33;10.70;;;22.30;29.00;;;;;;5081580;28;20443;-72
2022/03/28 13:22:46;;;;;;;16.03;11.60;;;22.50;27.90;;;;;;5082373;28;20962;-71
2022/03/28 13:25:43;;;;;;;23.03;12.10;;;22.80;27.60;;;;;;5086973;28;21070;-71
2022/03/28 13:28:29;;;;;;;18.97;12.57;;;22.40;26.80;;;;;;5083937;28;20520;-71
2022/03/28 13:31:15;;;;;;;20.50;12.60;;;21.80;28.20;;;;;;5080834;28;20851;-71
2022/03/28 13:34:04;;;;;;;18.30;12.67;;;21.80;28.00;;;;;;5078745;28;20456;-71
2022/03/28 13:36:51;;;;;;;24.67;11.90;;;22.20;28.20;;;;;;5084806;28;20959;-72
2022/03/28 13:39:38;;;;;;;23.87;13.47;;;22.00;28.00;;;;;;5079031;28;20450;-71
2022/03/28 13:42:24;;;;;;;19.93;11.93;;;22.20;29.10;;;;;;5079550;28;20438;-71
2022/03/28 13:45:10;;;;;;;21.30;13.17;;;22.60;29.40;;;;;;5088476;28;20482;-71
2022/03/28 13:47:56;;;;;;;15.57;11.73;;;23.00;27.60;;;;;;5084956;28;20461;-72
2022/03/28 13:50:45;;;;;;;16.90;12.20;;;22.90;29.20;;;;;;5082006;28;20806;-72
2022/03/28 13:53:33;;;;;;;18.13;11.97;;;23.30;27.90;;;;;;5084646;28;20579;-72
2022/03/28 13:56:21;;;;;;;17.27;12.10;;;23.50;28.80;;;;;;5089844;28;20450;-72
2022/03/28 13:59:07;;;;;;;21.37;12.10;;;23.80;28.70;;;;;;5085487;28;20959;-72
2022/03/28 14:01:53;;;;;;;18.73;12.37;;;24.20;28.30;;;;;;5079757;28;20446;-71
2022/03/28 14:04:39;;;;;;;20.37;12.40;;;24.30;27.00;;;;;;5087776;28;20465;-73
2022/03/28 14:07:24;;;;;;;19.50;12.00;;;24.30;25.20;;;;;;5086075;28;20454;-72
2022/03/28 14:10:10;;;;;;;20.23;12.27;;;24.40;26.70;;;;;;5079054;28;20536;-71
2022/03/28 14:12:57;;;;;;;16.60;11.00;;;24.60;27.20;;;;;;5072706;28;20477;-71
2022/03/28 14:15:43;;;;;;;18.50;11.57;;;24.70;26.90;;;;;;5074970;28;20512;-71
2022/03/28 14:18:29;;;;;;;17.47;11.87;;;24.70;25.70;;;;;;5089263;28;20926;-72
2022/03/28 14:21:16;;;;;;;22.60;10.77;;;24.80;25.00;;;;;;5094562;28;20488;-70